Time;durP1;ratioP1;P1;durP2;ratioP2;P2;SDS_P1;SDS_P2;PMS_P1;PMS_P2;Temp;Humidity;BMP_temperature;BMP_pressure;BME280_temperature;BME280_humidity;BME280_pressure;Samples;Min_cycle;Max_cycle;Signal;HPM_P1;HPM_P2
2023/10/14 00:01:04;;;;;;;1.65;0.43;;;19.00;70.80;20.60;99954.00;;;;5011100;28;20229;-77
2023/10/14 00:03:33;;;;;;;1.15;0.35;;;19.00;70.90;20.60;99950.00;;;;5017274;28;20200;-77
2023/10/14 00:06:06;;;;;;;1.50;0.40;;;19.00;70.90;20.60;99951.00;;;;5014186;28;20205;-76
2023/10/14 00:08:39;;;;;;;0.88;0.50;;;19.00;70.90;20.60;99959.00;;;;5011318;28;20628;-77
2023/10/14 00:11:07;;;;;;;3.90;0.60;;;19.00;70.90;20.60;99974.00;;;;5016821;28;20606;-77
2023/10/14 00:13:41;;;;;;;0.55;0.13;;;19.00;70.90;20.60;99983.00;;;;5020229;28;20200;-76
2023/10/14 00:16:20;;;;;;;1.30;0.40;;;19.00;70.90;20.60;100008.00;;;;5018681;28;20200;-77
2023/10/14 00:18:48;;;;;;;10.82;0.60;;;19.00;71.00;20.60;100003.00;;;;5009953;28;20189;-77
2023/10/14 00:21:15;;;;;;;2.90;0.55;;;19.00;70.90;20.60;100010.00;;;;5029308;28;20217;-78
2023/10/14 00:23:44;;;;;;;2.05;0.60;;;19.00;70.90;20.60;100013.00;;;;5016161;28;20560;-77
2023/10/14 00:26:16;;;;;;;1.55;0.20;;;19.00;70.70;20.60;100032.00;;;;5009365;28;20193;-76
2023/10/14 00:28:45;;;;;;;3.22;0.70;;;19.00;70.40;20.50;100037.00;;;;5011848;28;20228;-77
2023/10/14 00:31:14;;;;;;;5.78;0.63;;;18.90;70.10;20.40;100045.00;;;;5016283;28;20255;-77
2023/10/14 00:33:45;;;;;;;2.40;0.40;;;18.90;70.00;20.40;100056.00;;;;5009145;28;20201;-77
2023/10/14 00:36:13;;;;;;;1.48;0.65;;;18.90;69.90;20.40;100059.00;;;;5010406;28;20304;-77
2023/10/14 00:38:44;;;;;;;2.72;0.47;;;18.80;69.80;20.40;100056.00;;;;5012638;28;20266;-77
2023/10/14 00:41:12;;;;;;;2.38;0.60;;;18.80;69.80;20.30;100062.00;;;;5022490;28;20600;-77
2023/10/14 00:43:40;;;;;;;2.95;0.57;;;18.80;69.80;20.30;100078.00;;;;5021214;28;20666;-77
2023/10/14 00:46:15;;;;;;;4.50;0.50;;;18.70;69.70;20.20;100080.00;;;;5014941;28;20201;-77
2023/10/14 00:48:46;;;;;;;2.63;0.68;;;18.70;69.70;20.20;100081.00;;;;5009274;28;20292;-77
2023/10/14 00:51:15;;;;;;;1.05;0.52;;;18.70;69.70;20.20;100081.00;;;;5009334;28;20616;-77
2023/10/14 00:53:52;;;;;;;1.52;0.40;;;18.60;69.80;20.20;100086.00;;;;5009389;28;20189;-77
2023/10/14 00:56:27;;;;;;;3.67;0.32;;;18.60;69.70;20.20;100096.00;;;;5008999;28;20205;-77
2023/10/14 00:58:58;;;;;;;1.20;0.65;;;18.60;69.80;20.20;100102.00;;;;5008328;28;20207;-77
2023/10/14 01:01:28;;;;;;;1.23;0.43;;;18.60;69.80;20.20;100106.00;;;;5012117;28;20298;-77
2023/10/14 01:04:03;;;;;;;1.45;0.60;;;18.60;69.80;20.10;100127.00;;;;5025807;28;20200;-77
2023/10/14 01:06:39;;;;;;;3.05;0.60;;;18.50;69.80;20.10;100122.00;;;;5027281;28;20301;-76
2023/10/14 01:09:11;;;;;;;3.45;0.65;;;18.50;69.70;20.00;100135.00;;;;5010739;28;20197;-76
2023/10/14 01:11:41;;;;;;;3.38;0.50;;;18.50;69.50;20.00;100137.00;;;;5009279;28;20201;-77
2023/10/14 01:14:14;;;;;;;2.75;0.50;;;18.40;69.30;19.90;100142.00;;;;5009657;28;20200;-77
2023/10/14 01:16:41;;;;;;;2.67;0.60;;;18.40;69.20;19.90;100143.00;;;;5010580;28;20280;-77
2023/10/14 01:19:11;;;;;;;1.83;0.50;;;18.40;69.20;19.80;100142.00;;;;5016565;28;20203;-77
2023/10/14 01:21:40;;;;;;;4.10;0.63;;;18.30;69.10;19.80;100151.00;;;;5018466;28;20308;-76
2023/10/14 01:24:16;;;;;;;3.10;0.90;;;18.30;69.10;19.70;100163.00;;;;5027260;28;20710;-77
2023/10/14 01:26:51;;;;;;;1.58;0.45;;;18.30;69.10;19.70;100159.00;;;;5027267;28;20246;-76
2023/10/14 01:29:25;;;;;;;7.35;0.77;;;18.20;69.10;19.70;100161.00;;;;5010676;28;20299;-77
2023/10/14 01:32:24;;;;;;;2.22;0.80;;;18.20;69.10;19.60;100168.00;;;;5015705;28;20266;-76
2023/10/14 01:34:55;;;;;;;2.60;0.60;;;18.20;69.20;19.70;100176.00;;;;5022394;28;20200;-76
2023/10/14 01:37:37;;;;;;;1.48;0.57;;;18.20;69.20;19.70;100197.00;;;;5009291;28;20289;-76
2023/10/14 01:40:24;;;;;;;4.95;1.20;;;18.10;69.10;19.70;100190.00;;;;5008911;28;20201;-77
2023/10/14 01:42:56;;;;;;;5.85;0.90;;;18.10;69.30;19.70;100197.00;;;;5009598;28;20192;-77
2023/10/14 01:45:28;;;;;;;2.72;0.70;;;18.10;69.20;19.60;100197.00;;;;5019360;28;20200;-76
2023/10/14 01:48:11;;;;;;;6.55;0.90;;;18.10;69.00;19.60;100187.00;;;;5013724;28;20217;-77
2023/10/14 01:50:44;;;;;;;4.80;0.65;;;18.00;68.90;19.50;100205.00;;;;5018256;28;20196;-77
2023/10/14 01:53:12;;;;;;;4.65;0.73;;;18.00;68.90;19.50;100212.00;;;;5025321;28;20204;-76
2023/10/14 01:55:42;;;;;;;4.50;0.85;;;17.90;68.70;19.40;100214.00;;;;5025829;28;20270;-76
2023/10/14 01:58:10;;;;;;;6.32;1.15;;;17.90;69.40;19.40;100220.00;;;;5013552;28;20244;-77
2023/10/14 02:00:39;;;;;;;2.63;0.75;;;17.90;68.60;19.30;100223.00;;;;5014576;28;20204;-76
2023/10/14 02:03:07;;;;;;;3.45;0.82;;;17.80;68.40;19.30;100227.00;;;;5032372;28;20193;-77
2023/10/14 02:05:40;;;;;;;5.57;0.60;;;17.80;68.20;19.20;100232.00;;;;5029903;28;20251;-76
2023/10/14 02:08:13;;;;;;;4.38;0.60;;;17.70;68.10;19.10;100239.00;;;;5022100;28;20196;-77
2023/10/14 02:10:46;;;;;;;3.58;0.50;;;17.60;68.00;19.20;100259.00;;;;5030997;28;20278;-77
2023/10/14 02:13:16;;;;;;;6.03;0.95;;;17.60;68.20;19.10;100257.00;;;;5013086;28;20193;-76
2023/10/14 02:15:47;;;;;;;5.15;1.02;;;17.50;68.20;19.10;100257.00;;;;5011434;28;20285;-76
2023/10/14 02:18:20;;;;;;;2.97;0.63;;;17.50;68.30;19.10;100266.00;;;;5012705;28;20288;-77
2023/10/14 02:21:05;;;;;;;4.70;0.65;;;17.50;68.30;19.00;100270.00;;;;5029420;28;20192;-76
2023/10/14 02:23:44;;;;;;;5.03;0.90;;;17.40;68.30;19.00;100280.00;;;;5018096;28;20201;-76
2023/10/14 02:26:22;;;;;;;1.77;0.38;;;17.40;68.20;18.90;100290.00;;;;5020794;28;20552;-76
2023/10/14 02:28:52;;;;;;;4.55;0.93;;;17.30;68.10;18.90;100290.00;;;;5021793;28;20219;-76
2023/10/14 02:31:28;;;;;;;4.30;0.95;;;17.30;68.20;18.90;100296.00;;;;5016847;28;20284;-76
2023/10/14 02:33:57;;;;;;;3.63;0.60;;;17.20;68.20;18.80;100303.00;;;;5030979;28;20196;-76
2023/10/14 02:36:29;;;;;;;5.50;0.82;;;17.20;68.10;18.80;100311.00;;;;5025801;28;20212;-76
2023/10/14 02:38:57;;;;;;;3.28;0.70;;;17.10;68.00;18.70;100333.00;;;;5015108;28;20776;-76
2023/10/14 02:41:29;;;;;;;2.58;0.50;;;17.10;68.10;18.70;100324.00;;;;5011516;28;20268;-76
2023/10/14 02:44:18;;;;;;;2.95;0.88;;;17.00;68.10;18.70;100335.00;;;;5011300;28;20255;-76
2023/10/14 02:46:46;;;;;;;3.97;0.95;;;16.90;68.10;18.60;100339.00;;;;5011951;28;20682;-76
2023/10/14 02:49:15;;;;;;;4.70;0.75;;;16.90;68.00;18.60;100343.00;;;;5012495;28;20197;-76
2023/10/14 02:51:43;;;;;;;3.20;0.77;;;16.80;67.90;18.50;100345.00;;;;5010805;28;20578;-76
2023/10/14 02:54:26;;;;;;;4.47;0.90;;;16.80;67.80;18.50;100361.00;;;;5011606;28;20628;-76
2023/10/14 02:56:59;;;;;;;2.75;0.75;;;16.70;67.70;18.40;100368.00;;;;5011644;28;21006;-76
2023/10/14 02:59:38;;;;;;;4.32;0.98;;;16.70;67.80;18.30;100373.00;;;;5017617;28;20667;-76
2023/10/14 03:02:24;;;;;;;5.18;0.82;;;16.60;67.80;18.30;100381.00;;;;5011405;28;20704;-76
2023/10/14 03:05:10;;;;;;;3.47;0.65;;;16.60;67.80;18.20;100396.00;;;;5011214;28;20964;-76
2023/10/14 03:07:50;;;;;;;1.83;0.38;;;16.50;67.70;18.20;100404.00;;;;5012052;28;20193;-76
2023/10/14 03:10:28;;;;;;;4.25;0.50;;;16.50;67.80;18.10;100407.00;;;;5021175;28;20228;-76
2023/10/14 03:12:57;;;;;;;5.13;0.65;;;16.40;67.70;18.10;100410.00;;;;5011401;28;20251;-76
2023/10/14 03:15:25;;;;;;;4.82;0.95;;;16.40;67.80;18.10;100413.00;;;;5015234;28;20224;-76
2023/10/14 03:17:55;;;;;;;5.40;0.73;;;16.30;67.90;18.00;100419.00;;;;5012099;28;20291;-76
2023/10/14 03:20:35;;;;;;;5.47;0.82;;;16.30;67.80;18.00;100434.00;;;;5012217;28;20189;-76
2023/10/14 03:23:10;;;;;;;4.95;0.52;;;16.20;67.70;17.90;100435.00;;;;5019088;28;20224;-76
2023/10/14 03:25:38;;;;;;;4.20;0.70;;;16.20;67.80;17.90;100439.00;;;;5024004;28;20202;-76
2023/10/14 03:28:12;;;;;;;6.72;1.15;;;16.10;67.70;17.80;100450.00;;;;5011200;28;20197;-76
2023/10/14 03:30:44;;;;;;;8.75;0.80;;;16.10;67.90;17.80;100453.00;;;;5009980;28;20224;-76
2023/10/14 03:33:11;;;;;;;10.02;0.95;;;16.10;67.80;17.80;100453.00;;;;5015665;28;20200;-76
2023/10/14 03:35:41;;;;;;;2.92;0.65;;;16.00;67.80;17.70;100465.00;;;;5026156;28;20215;-77
2023/10/14 03:38:15;;;;;;;4.13;0.75;;;16.00;67.80;17.70;100462.00;;;;5012009;28;20225;-76
2023/10/14 03:41:01;;;;;;;3.97;0.60;;;15.90;67.80;17.70;100472.00;;;;5009477;28;20201;-76
2023/10/14 03:43:34;;;;;;;3.13;0.50;;;15.90;67.90;17.60;100476.00;;;;5015544;28;20212;-76
2023/10/14 03:46:11;;;;;;;2.90;0.82;;;15.90;67.90;17.50;100483.00;;;;5020046;28;20192;-76
2023/10/14 03:48:45;;;;;;;6.18;0.98;;;15.80;67.90;17.60;100485.00;;;;5011951;28;20199;-76
2023/10/14 03:51:14;;;;;;;2.50;0.60;;;15.80;67.90;17.60;100493.00;;;;5015245;28;20219;-76
2023/10/14 03:53:41;;;;;;;6.00;0.80;;;15.80;68.00;17.50;100499.00;;;;5017217;28;20190;-77
2023/10/14 03:56:08;;;;;;;2.58;0.82;;;15.70;67.90;17.50;100506.00;;;;5010307;28;20196;-76
2023/10/14 03:58:37;;;;;;;5.68;1.10;;;15.70;67.90;17.40;100503.00;;;;5009557;28;20936;-76
2023/10/14 04:01:04;;;;;;;5.30;0.95;;;15.70;68.00;17.40;100506.00;;;;5013116;28;20283;-76
2023/10/14 04:03:40;;;;;;;3.35;1.17;;;15.60;68.00;17.40;100513.00;;;;5023899;28;20712;-76
2023/10/14 04:06:14;;;;;;;5.72;0.93;;;15.60;68.00;17.40;100516.00;;;;5020181;28;20195;-76
2023/10/14 04:08:46;;;;;;;6.45;0.80;;;15.60;68.10;17.40;100521.00;;;;5012915;28;20201;-76
2023/10/14 04:11:15;;;;;;;5.45;1.10;;;15.60;68.10;17.30;100514.00;;;;5022849;28;20780;-76
2023/10/14 04:13:58;;;;;;;2.63;0.55;;;15.50;67.90;17.30;100521.00;;;;5016607;28;20220;-76
2023/10/14 04:16:29;;;;;;;3.17;0.68;;;15.50;67.90;17.30;100531.00;;;;5023648;28;20572;-76
2023/10/14 04:19:02;;;;;;;4.15;1.00;;;15.50;68.00;17.30;100534.00;;;;5022089;28;20557;-76
2023/10/14 04:21:36;;;;;;;5.95;0.82;;;15.40;68.00;17.20;100544.00;;;;5024685;28;20200;-76
2023/10/14 04:24:20;;;;;;;6.53;0.88;;;15.40;67.90;17.20;100543.00;;;;5024268;28;20553;-76
2023/10/14 04:26:49;;;;;;;6.55;0.75;;;15.40;68.10;17.20;100551.00;;;;5026187;28;20200;-76
2023/10/14 04:29:34;;;;;;;4.40;0.80;;;15.40;68.20;17.10;100555.00;;;;5010128;28;20208;-76
2023/10/14 04:32:13;;;;;;;2.40;0.70;;;15.40;68.30;17.10;100559.00;;;;5010598;28;20207;-76
2023/10/14 04:34:44;;;;;;;3.65;0.82;;;15.30;68.30;17.10;100559.00;;;;5018513;28;20192;-76
2023/10/14 04:37:16;;;;;;;4.75;0.63;;;15.30;68.30;17.10;100567.00;;;;5010740;28;20686;-76
2023/10/14 04:39:43;;;;;;;3.70;0.80;;;15.30;68.30;17.10;100574.00;;;;5010195;28;20197;-76
2023/10/14 04:42:35;;;;;;;2.40;0.55;;;15.30;68.30;17.10;100580.00;;;;5027771;28;20219;-76
2023/10/14 04:45:07;;;;;;;4.47;0.50;;;15.30;68.30;17.00;100574.00;;;;5021899;28;20200;-76
2023/10/14 04:47:37;;;;;;;2.60;0.50;;;15.20;68.20;17.00;100594.00;;;;5029016;28;20204;-76
2023/10/14 04:50:13;;;;;;;1.05;0.40;;;15.20;68.20;17.00;100581.00;;;;5029072;28;20195;-76
2023/10/14 04:52:41;;;;;;;3.13;0.70;;;15.20;68.20;17.00;100591.00;;;;5018956;28;20623;-75
2023/10/14 04:55:25;;;;;;;2.67;0.75;;;15.20;68.10;16.90;100596.00;;;;5009269;28;20292;-76
2023/10/14 04:58:09;;;;;;;3.30;0.55;;;15.10;68.10;16.90;100607.00;;;;5010252;28;20706;-76
2023/10/14 05:00:42;;;;;;;2.05;0.70;;;15.10;68.80;16.90;100620.00;;;;5010214;28;21892;-75
2023/10/14 05:03:11;;;;;;;4.85;0.88;;;15.10;68.10;16.90;100620.00;;;;5018886;28;20221;-76
2023/10/14 05:05:41;;;;;;;4.53;0.60;;;15.00;68.10;16.90;100620.00;;;;5009529;28;20335;-76
2023/10/14 05:08:15;;;;;;;3.30;0.57;;;15.00;68.20;16.80;100632.00;;;;5010734;28;20225;-76
2023/10/14 05:10:43;;;;;;;5.65;1.02;;;15.00;68.20;16.80;100641.00;;;;5008797;28;20626;-76
2023/10/14 05:13:13;;;;;;;4.05;0.60;;;15.00;68.20;16.80;100640.00;;;;5021493;28;20230;-76
2023/10/14 05:15:52;;;;;;;2.78;0.65;;;15.00;68.20;16.70;100642.00;;;;5024236;28;20204;-76
2023/10/14 05:18:27;;;;;;;4.90;0.77;;;14.90;68.10;16.70;100655.00;;;;5008273;28;20193;-76
2023/10/14 05:21:03;;;;;;;4.90;0.50;;;14.90;68.10;16.70;100655.00;;;;5009427;28;20200;-76
2023/10/14 05:23:31;;;;;;;5.13;0.80;;;14.90;68.20;16.70;100659.00;;;;5018112;28;20717;-76
2023/10/14 05:25:59;;;;;;;3.03;0.47;;;14.90;68.10;16.70;100665.00;;;;5010150;28;20200;-76
2023/10/14 05:28:31;;;;;;;3.28;0.60;;;14.80;68.10;16.60;100662.00;;;;5009814;28;20219;-76
2023/10/14 05:31:05;;;;;;;6.10;0.80;;;14.80;68.10;16.60;100664.00;;;;5019269;28;20281;-76
2023/10/14 05:33:33;;;;;;;4.47;0.60;;;14.80;68.20;16.60;100667.00;;;;5014234;28;20254;-76
2023/10/14 05:36:01;;;;;;;3.72;0.73;;;14.80;68.30;16.60;100674.00;;;;5017516;28;20299;-76
2023/10/14 05:38:28;;;;;;;3.17;0.73;;;14.70;68.20;16.60;100674.00;;;;5024272;28;20266;-76
2023/10/14 05:40:58;;;;;;;1.80;0.52;;;14.70;68.30;16.50;100687.00;;;;5023365;28;20200;-75
2023/10/14 05:43:25;;;;;;;4.55;0.90;;;14.70;68.30;16.50;100687.00;;;;5015119;28;20232;-75
2023/10/14 05:45:53;;;;;;;2.00;0.47;;;14.70;68.20;16.50;100691.00;;;;5022161;28;20197;-76
2023/10/14 05:48:26;;;;;;;3.38;0.40;;;14.70;68.20;16.50;100697.00;;;;5010395;28;20195;-76
2023/10/14 05:50:56;;;;;;;3.00;0.73;;;14.60;68.20;16.40;100695.00;;;;5023044;28;20204;-76
2023/10/14 05:53:26;;;;;;;1.15;0.30;;;14.60;68.20;16.40;100703.00;;;;5008749;28;20196;-76
2023/10/14 05:56:09;;;;;;;1.60;0.30;;;14.60;68.30;16.30;100707.00;;;;5008822;28;20209;-76
2023/10/14 05:58:37;;;;;;;4.60;0.43;;;14.60;68.20;16.40;100708.00;;;;5013876;28;20659;-76
2023/10/14 06:01:09;;;;;;;3.10;1.00;;;14.60;68.30;16.30;100723.00;;;;5011624;28;20197;-76
2023/10/14 06:03:38;;;;;;;4.00;0.95;;;14.50;68.20;16.30;100722.00;;;;5009137;28;20221;-76
2023/10/14 06:06:09;;;;;;;2.85;0.88;;;14.50;68.30;16.30;100726.00;;;;5009660;28;20200;-76
2023/10/14 06:08:37;;;;;;;6.20;0.85;;;14.50;68.30;16.30;100732.00;;;;5011073;28;20209;-76
2023/10/14 06:11:06;;;;;;;3.30;0.55;;;14.50;68.40;16.30;100738.00;;;;5015611;28;20237;-76
2023/10/14 06:13:33;;;;;;;5.20;0.88;;;14.40;68.20;16.30;100749.00;;;;5017641;28;20196;-75
2023/10/14 06:16:04;;;;;;;5.22;0.82;;;14.40;68.30;16.30;100758.00;;;;5009718;28;20201;-76
2023/10/14 06:18:31;;;;;;;2.78;0.77;;;14.40;68.20;16.20;100757.00;;;;5011771;28;21002;-75
2023/10/14 06:21:00;;;;;;;1.90;0.50;;;14.40;68.30;16.20;100768.00;;;;5017532;28;20207;-75
2023/10/14 06:23:27;;;;;;;4.45;0.82;;;14.40;68.40;16.20;100769.00;;;;5016379;28;20213;-76
2023/10/14 06:25:54;;;;;;;4.47;0.70;;;14.40;68.50;16.20;100774.00;;;;5012630;28;20212;-76
2023/10/14 06:28:21;;;;;;;2.83;0.95;;;14.40;68.50;16.20;100778.00;;;;5017092;28;20696;-76
2023/10/14 06:30:48;;;;;;;4.50;0.73;;;14.40;68.60;16.20;100780.00;;;;5013446;28;20212;-75
2023/10/14 06:33:15;;;;;;;4.95;1.00;;;14.40;68.60;16.20;100788.00;;;;5017782;28;20547;-75
2023/10/14 06:35:43;;;;;;;3.25;0.70;;;14.40;68.60;16.20;100790.00;;;;5017885;28;20197;-75
2023/10/14 06:38:17;;;;;;;4.10;1.30;;;14.40;68.70;16.20;100793.00;;;;5020236;28;20297;-75
2023/10/14 06:40:44;;;;;;;5.70;1.02;;;14.40;68.70;16.20;100795.00;;;;5020646;28;20219;-76
2023/10/14 06:43:13;;;;;;;3.63;0.52;;;14.40;68.80;16.30;100806.00;;;;5020793;28;20220;-76
2023/10/14 06:45:40;;;;;;;4.53;0.88;;;14.40;68.70;16.30;100806.00;;;;5022692;28;20200;-76
2023/10/14 06:48:10;;;;;;;4.15;0.50;;;14.40;68.80;16.30;100809.00;;;;5018993;28;20213;-76
2023/10/14 06:50:38;;;;;;;6.10;0.77;;;14.40;68.80;16.30;100812.00;;;;5021316;28;20207;-76
2023/10/14 06:53:08;;;;;;;9.32;0.80;;;14.50;69.00;16.30;100825.00;;;;5018148;28;20622;-75
2023/10/14 06:55:39;;;;;;;6.78;0.75;;;14.40;68.90;16.30;100836.00;;;;5021419;28;20185;-75
2023/10/14 06:58:07;;;;;;;4.85;0.95;;;14.50;69.10;16.40;100838.00;;;;5017914;28;20279;-76
2023/10/14 07:00:37;;;;;;;5.60;0.82;;;14.50;69.10;16.40;100847.00;;;;5016767;28;21045;-75
2023/10/14 07:03:07;;;;;;;1.92;0.45;;;14.50;69.20;16.40;100844.00;;;;5019502;28;20224;-76
2023/10/14 07:05:43;;;;;;;9.98;0.80;;;14.50;69.20;16.40;100857.00;;;;5020113;28;20199;-76
2023/10/14 07:08:11;;;;;;;4.97;1.02;;;14.60;69.30;16.40;100859.00;;;;5013959;28;20220;-76
2023/10/14 07:10:40;;;;;;;3.45;0.52;;;14.60;69.40;16.50;100860.00;;;;5019385;28;20231;-75
2023/10/14 07:13:08;;;;;;;4.25;0.88;;;14.60;69.40;16.50;100864.00;;;;5019887;28;20204;-75
2023/10/14 07:15:38;;;;;;;3.38;0.93;;;14.60;70.20;16.50;100872.00;;;;5014732;28;20213;-75
2023/10/14 07:18:08;;;;;;;4.28;0.80;;;14.60;69.40;16.60;100872.00;;;;5017496;28;20631;-75
2023/10/14 07:20:35;;;;;;;4.60;0.82;;;14.70;69.50;16.60;100882.00;;;;5015986;28;20682;-75
2023/10/14 07:23:03;;;;;;;8.50;1.10;;;14.70;69.50;16.70;100890.00;;;;5018184;28;20233;-75
2023/10/14 07:25:34;;;;;;;8.88;1.13;;;14.80;69.50;16.70;100888.00;;;;5018417;28;20218;-75
2023/10/14 07:28:07;;;;;;;5.57;0.60;;;14.80;69.50;16.70;100890.00;;;;5017018;28;20197;-75
2023/10/14 07:30:35;;;;;;;7.15;1.45;;;14.80;69.40;16.80;100890.00;;;;5016983;28;20199;-75
2023/10/14 07:33:06;;;;;;;4.43;0.90;;;14.90;69.50;16.80;100894.00;;;;5022345;28;20205;-74
2023/10/14 07:35:33;;;;;;;4.80;1.05;;;14.90;69.60;16.90;100901.00;;;;5017572;28;20205;-75
2023/10/14 07:38:00;;;;;;;4.30;0.60;;;15.00;70.40;16.90;100905.00;;;;5014977;28;20637;-74
2023/10/14 07:40:30;;;;;;;4.47;1.17;;;15.00;69.60;17.00;100915.00;;;;5024289;28;20656;-74
2023/10/14 07:43:05;;;;;;;3.28;1.45;;;15.10;69.70;17.00;100911.00;;;;5027130;28;20311;-74
2023/10/14 07:45:35;;;;;;;3.95;0.90;;;15.20;69.80;17.10;100920.00;;;;5013052;28;20196;-74
2023/10/14 07:48:08;;;;;;;3.40;1.27;;;15.20;69.80;17.20;100930.00;;;;5020898;28;20200;-74
2023/10/14 07:50:37;;;;;;;4.70;0.88;;;15.30;69.80;17.20;100927.00;;;;5009613;28;20201;-74
2023/10/14 07:53:08;;;;;;;4.72;1.20;;;15.40;69.90;17.30;100932.00;;;;5011211;28;20291;-74
2023/10/14 07:55:39;;;;;;;8.02;1.10;;;15.40;69.90;17.40;100936.00;;;;5014908;28;20209;-74
2023/10/14 07:58:08;;;;;;;7.60;1.00;;;15.50;69.90;17.40;100941.00;;;;5011121;28;20215;-74
2023/10/14 08:00:39;;;;;;;3.03;0.70;;;15.60;69.80;17.40;100938.00;;;;5009710;28;20208;-74
2023/10/14 08:03:07;;;;;;;5.85;0.98;;;15.70;69.50;17.50;100944.00;;;;5010303;28;20220;-74
2023/10/14 08:05:38;;;;;;;5.28;1.27;;;15.70;69.30;17.50;100950.00;;;;5022031;28;20454;-74
2023/10/14 08:08:09;;;;;;;8.10;1.42;;;15.80;69.30;17.60;100958.00;;;;5013622;28;20823;-74
2023/10/14 08:10:36;;;;;;;6.25;1.20;;;15.80;69.30;17.70;100957.00;;;;5012461;28;20310;-74
2023/10/14 08:13:05;;;;;;;5.18;0.82;;;15.90;69.30;17.70;100956.00;;;;5013061;28;20284;-74
2023/10/14 08:15:31;;;;;;;10.18;1.42;;;15.90;69.20;17.80;100957.00;;;;5010371;28;20209;-74
2023/10/14 08:18:00;;;;;;;7.38;1.08;;;16.00;69.00;17.80;100970.00;;;;5012322;28;20219;-74
2023/10/14 08:20:30;;;;;;;5.53;1.10;;;16.10;69.00;17.90;100965.00;;;;5014994;28;20196;-75
2023/10/14 08:22:58;;;;;;;8.48;1.05;;;16.10;69.00;17.90;100967.00;;;;5013847;28;20596;-74
2023/10/14 08:25:28;;;;;;;6.03;1.10;;;16.20;69.10;18.00;100979.00;;;;5016459;28;20208;-74
2023/10/14 08:27:57;;;;;;;5.68;1.08;;;16.20;69.10;18.10;100980.00;;;;5016203;28;20212;-74
2023/10/14 08:30:25;;;;;;;6.60;1.55;;;16.30;69.10;18.10;100981.00;;;;5013751;28;20196;-74
2023/10/14 08:32:53;;;;;;;7.72;1.85;;;16.40;69.20;18.20;100984.00;;;;5037086;28;20208;-74
2023/10/14 08:35:27;;;;;;;3.22;1.15;;;16.40;69.10;18.20;100979.00;;;;5021631;28;20260;-75
2023/10/14 08:37:58;;;;;;;8.15;1.30;;;16.50;69.00;18.30;100989.00;;;;5010288;28;20213;-75
2023/10/14 08:40:29;;;;;;;5.80;1.38;;;16.50;68.80;18.30;100986.00;;;;5016410;28;20586;-76
2023/10/14 08:43:05;;;;;;;6.30;1.48;;;16.60;68.80;18.40;100996.00;;;;5013653;28;20671;-75
2023/10/14 08:45:35;;;;;;;4.85;1.10;;;16.60;68.60;18.40;101000.00;;;;5012363;28;20202;-75
2023/10/14 08:48:04;;;;;;;8.30;1.17;;;16.70;68.50;18.50;101004.00;;;;5023668;28;20193;-75
2023/10/14 08:50:33;;;;;;;5.50;1.15;;;16.80;68.40;18.60;100997.00;;;;5016781;28;20197;-75
2023/10/14 08:53:05;;;;;;;3.78;0.80;;;16.90;68.10;18.60;101005.00;;;;5013585;28;20238;-75
2023/10/14 08:55:35;;;;;;;4.03;0.88;;;16.90;68.10;18.70;101005.00;;;;5022736;28;20667;-75
2023/10/14 08:58:05;;;;;;;7.60;0.82;;;17.00;68.20;18.80;101012.00;;;;5011688;28;20279;-75
2023/10/14 09:00:36;;;;;;;6.53;1.20;;;17.10;68.10;18.80;101012.00;;;;5012264;28;20193;-75
2023/10/14 09:03:05;;;;;;;8.13;1.52;;;17.10;68.10;18.90;101017.00;;;;5022774;28;21024;-74
2023/10/14 09:05:38;;;;;;;3.47;0.73;;;17.20;67.90;18.90;101026.00;;;;5028248;28;20205;-75
2023/10/14 09:08:05;;;;;;;8.80;1.27;;;17.30;67.40;19.00;101025.00;;;;5016996;28;20204;-75
2023/10/14 09:10:36;;;;;;;5.90;1.27;;;17.30;67.40;19.00;101025.00;;;;5010789;28;20235;-75
2023/10/14 09:13:09;;;;;;;2.78;0.57;;;17.40;67.30;19.10;101045.00;;;;5015029;28;20251;-75
2023/10/14 09:15:39;;;;;;;5.15;1.50;;;17.40;66.80;19.20;101041.00;;;;5012706;28;20193;-75
2023/10/14 09:18:13;;;;;;;3.00;0.82;;;17.50;66.60;19.10;101046.00;;;;5024180;28;20707;-75
2023/10/14 09:20:42;;;;;;;3.20;0.68;;;17.60;65.80;19.10;101049.00;;;;5009932;28;20219;-75
2023/10/14 09:23:19;;;;;;;4.25;0.50;;;17.60;65.50;19.00;101048.00;;;;5019098;28;20209;-75
2023/10/14 09:25:50;;;;;;;3.33;1.17;;;17.60;65.00;19.10;101059.00;;;;5009913;28;20627;-75
2023/10/14 09:28:20;;;;;;;8.38;1.88;;;17.60;65.20;19.10;101064.00;;;;5012230;28;20204;-75
2023/10/14 09:30:50;;;;;;;4.40;0.75;;;17.60;64.90;19.10;101059.00;;;;5011260;28;20243;-75
2023/10/14 09:33:22;;;;;;;2.05;0.60;;;17.60;65.00;19.10;101063.00;;;;5020232;28;20204;-75
2023/10/14 09:35:51;;;;;;;5.45;1.45;;;17.60;65.10;19.20;101063.00;;;;5028635;28;20204;-75
2023/10/14 09:38:23;;;;;;;3.47;0.55;;;17.60;65.00;19.20;101069.00;;;;5017731;28;20327;-75
2023/10/14 09:40:57;;;;;;;5.57;1.83;;;17.60;65.00;19.20;101077.00;;;;5023377;28;20197;-75
2023/10/14 09:43:25;;;;;;;4.97;1.23;;;17.60;65.00;19.20;101079.00;;;;5017540;28;20725;-75
2023/10/14 09:45:56;;;;;;;4.03;0.75;;;17.60;64.30;19.20;101099.00;;;;5009850;28;20232;-75
2023/10/14 09:48:25;;;;;;;6.90;1.30;;;17.60;64.20;19.10;101093.00;;;;5015916;28;20259;-75
2023/10/14 09:50:55;;;;;;;4.85;1.00;;;17.60;63.20;19.00;101096.00;;;;5014253;28;20573;-75
2023/10/14 09:53:27;;;;;;;4.32;0.88;;;17.60;63.10;18.90;101091.00;;;;5008091;28;20193;-75
2023/10/14 09:55:56;;;;;;;3.17;0.60;;;17.50;62.90;18.90;101094.00;;;;5020480;28;20255;-75
2023/10/14 09:58:30;;;;;;;5.03;0.68;;;17.40;63.10;18.80;101093.00;;;;5022993;28;20193;-74
2023/10/14 10:01:00;;;;;;;4.13;1.02;;;17.40;63.30;18.90;101091.00;;;;5023901;28;20784;-75
2023/10/14 10:03:33;;;;;;;4.68;0.85;;;17.30;63.70;18.90;101099.00;;;;5012868;28;20227;-75
2023/10/14 10:06:36;;;;;;;4.10;0.82;;;17.30;64.20;18.90;101103.00;;;;5020003;28;20197;-75
2023/10/14 10:09:38;;;;;;;3.55;0.70;;;17.30;64.30;19.00;101102.00;;;;5016728;28;20658;-75
2023/10/14 10:12:10;;;;;;;5.72;0.80;;;17.40;64.80;19.30;101103.00;;;;5011680;28;20393;-74
2023/10/14 10:14:42;;;;;;;4.22;1.30;;;17.50;65.60;19.40;101108.00;;;;5014881;28;20279;-74
2023/10/14 10:17:12;;;;;;;6.40;0.73;;;17.60;65.60;19.50;101096.00;;;;5020209;28;20196;-74
2023/10/14 10:20:10;;;;;;;3.95;0.80;;;17.70;65.50;19.40;101099.00;;;;5013048;28;20209;-74
2023/10/14 10:22:51;;;;;;;5.55;1.10;;;17.80;64.80;19.60;101100.00;;;;5012531;28;20223;-75
2023/10/14 10:25:21;;;;;;;5.63;0.90;;;18.00;65.00;19.70;101096.00;;;;5012086;28;20247;-74
2023/10/14 10:27:49;;;;;;;3.92;0.75;;;18.10;65.20;19.80;101106.00;;;;5014334;28;20209;-75
2023/10/14 10:30:19;;;;;;;3.70;0.93;;;18.10;65.10;19.90;101106.00;;;;5015701;28;20192;-75
2023/10/14 10:32:50;;;;;;;8.15;1.77;;;18.20;65.00;20.00;101122.00;;;;5012404;28;20741;-75
2023/10/14 10:35:19;;;;;;;3.50;0.98;;;18.30;64.70;20.00;101121.00;;;;5024535;28;20207;-75
2023/10/14 10:37:52;;;;;;;7.13;1.52;;;18.40;64.10;20.00;101125.00;;;;5023106;28;20307;-76
2023/10/14 10:40:25;;;;;;;5.88;1.52;;;18.50;63.30;20.00;101128.00;;;;5016002;28;20574;-76
2023/10/14 10:42:55;;;;;;;8.15;1.00;;;18.50;63.10;20.10;101133.00;;;;5016138;28;20241;-76
2023/10/14 10:45:29;;;;;;;5.63;1.10;;;18.60;62.90;20.10;101128.00;;;;5013780;28;20220;-76
2023/10/14 10:47:59;;;;;;;5.53;1.00;;;18.60;62.80;20.20;101143.00;;;;5017162;28;20670;-76
2023/10/14 10:50:34;;;;;;;3.63;1.10;;;18.60;63.00;20.20;101142.00;;;;5028044;28;20214;-76
2023/10/14 10:53:22;;;;;;;5.45;1.00;;;18.70;63.10;20.10;101134.00;;;;5027729;28;20674;-76
2023/10/14 10:55:52;;;;;;;7.05;1.02;;;18.70;62.00;20.20;101135.00;;;;5017202;28;20197;-76
2023/10/14 10:58:20;;;;;;;4.40;1.05;;;18.70;62.40;20.30;101136.00;;;;5014023;28;20217;-76
2023/10/14 11:00:50;;;;;;;3.50;0.70;;;18.70;62.60;20.30;101137.00;;;;5021700;28;20190;-76
2023/10/14 11:03:17;;;;;;;4.55;0.82;;;18.70;62.70;20.30;101137.00;;;;5021816;28;21150;-76
2023/10/14 11:05:47;;;;;;;3.08;1.00;;;18.80;62.60;20.40;101141.00;;;;5019407;28;20224;-76
2023/10/14 11:08:15;;;;;;;7.13;1.17;;;18.80;62.40;20.40;101144.00;;;;5013431;28;20208;-76